createdAt,value
2022-11-25T00:01:07.438Z,2.22
2022-11-25T00:03:35.440Z,1.00
2022-11-25T00:06:21.157Z,2.20
2022-11-25T00:08:49.851Z,1.67
2022-11-25T00:11:17.366Z,2.05
2022-11-25T00:13:44.952Z,2.08
2022-11-25T00:16:14.531Z,1.70
2022-11-25T00:18:44.901Z,2.30
2022-11-25T00:21:14.055Z,1.90
2022-11-25T00:23:40.840Z,1.20
2022-11-25T00:26:15.938Z,1.52
2022-11-25T00:28:46.847Z,1.48
2022-11-25T00:31:16.431Z,1.95
2022-11-25T00:33:43.397Z,1.63
2022-11-25T00:36:24.318Z,1.33
2022-11-25T00:38:56.350Z,1.60
2022-11-25T00:41:41.740Z,1.77
2022-11-25T00:44:29.186Z,0.63
2022-11-25T00:46:55.999Z,1.52
2022-11-25T00:49:22.533Z,1.05
2022-11-25T00:51:49.190Z,1.50
2022-11-25T00:54:15.916Z,1.67
2022-11-25T00:56:42.608Z,1.60
2022-11-25T00:59:09.501Z,1.55
2022-11-25T01:01:36.921Z,1.20
2022-11-25T01:04:04.191Z,1.80
2022-11-25T01:06:30.908Z,1.48
2022-11-25T01:08:57.478Z,1.50
2022-11-25T01:11:24.352Z,1.50
2022-11-25T01:13:57.872Z,1.50
2022-11-25T01:16:27.890Z,1.50
2022-11-25T01:18:54.572Z,1.67
2022-11-25T01:21:27.019Z,1.33
2022-11-25T01:23:53.730Z,0.75
2022-11-25T01:26:24.901Z,1.60
2022-11-25T01:28:56.827Z,1.27
2022-11-25T01:31:25.660Z,1.55
2022-11-25T01:33:55.499Z,1.30
2022-11-25T01:36:22.473Z,1.58
2022-11-25T01:38:55.123Z,1.33
2022-11-25T01:41:22.883Z,1.20
2022-11-25T01:44:06.219Z,0.70
2022-11-25T01:47:06.413Z,1.52
2022-11-25T01:49:44.521Z,1.10
2022-11-25T01:52:18.130Z,1.65
2022-11-25T01:54:54.781Z,1.30
2022-11-25T01:57:27.791Z,1.05
2022-11-25T01:59:57.866Z,1.92
2022-11-25T02:02:24.635Z,1.40
2022-11-25T02:04:51.423Z,1.77
2022-11-25T02:07:26.231Z,1.70
2022-11-25T02:09:54.130Z,1.48
2022-11-25T02:12:20.963Z,1.30
2022-11-25T02:14:50.590Z,1.70
2022-11-25T02:17:17.539Z,1.70
2022-11-25T02:20:06.385Z,1.55
2022-11-25T02:22:35.683Z,1.77
2022-11-25T02:25:30.288Z,1.88
2022-11-25T02:28:18.841Z,1.48
2022-11-25T02:30:46.240Z,1.70
2022-11-25T02:33:13.685Z,1.52
2022-11-25T02:35:47.686Z,1.52
2022-11-25T02:38:20.780Z,1.58
2022-11-25T02:40:55.195Z,1.38
2022-11-25T02:43:22.121Z,1.55
2022-11-25T02:46:02.664Z,1.45
2022-11-25T02:49:00.969Z,1.77
2022-11-25T02:51:20.869Z,2.10
2022-11-25T02:53:47.883Z,1.50
2022-11-25T02:56:15.876Z,1.52
2022-11-25T02:58:42.722Z,1.58
2022-11-25T03:01:09.853Z,1.85
2022-11-25T03:03:37.143Z,1.40
2022-11-25T03:06:03.936Z,1.73
2022-11-25T03:08:30.567Z,1.70
2022-11-25T03:10:57.141Z,1.30
2022-11-25T03:13:23.786Z,1.63
2022-11-25T03:15:50.429Z,1.40
2022-11-25T03:18:17.060Z,1.42
2022-11-25T03:20:43.599Z,1.27
2022-11-25T03:23:10.291Z,1.85
2022-11-25T03:25:37.035Z,1.92
2022-11-25T03:28:04.381Z,1.23
2022-11-25T03:30:31.330Z,1.40
2022-11-25T03:32:57.956Z,1.50
2022-11-25T03:35:24.518Z,1.60
2022-11-25T03:37:51.074Z,2.38
2022-11-25T03:40:17.765Z,1.85
2022-11-25T03:42:44.541Z,1.55
2022-11-25T03:45:17.968Z,1.73
2022-11-25T03:47:45.354Z,1.27
2022-11-25T03:50:14.082Z,0.65
2022-11-25T03:52:40.833Z,1.40
2022-11-25T03:55:08.172Z,1.77
2022-11-25T03:57:35.249Z,1.50
2022-11-25T04:00:02.494Z,1.75
2022-11-25T04:02:29.185Z,2.30
2022-11-25T04:04:55.856Z,1.92
2022-11-25T04:07:22.509Z,1.42
2022-11-25T04:09:49.185Z,1.65
2022-11-25T04:12:34.353Z,1.75
2022-11-25T04:15:00.877Z,1.23
2022-11-25T04:17:27.425Z,1.55
2022-11-25T04:19:54.014Z,2.10
2022-11-25T04:22:20.573Z,1.45
2022-11-25T04:24:47.281Z,1.75
2022-11-25T04:27:13.870Z,1.92
2022-11-25T04:29:40.425Z,2.25
2022-11-25T04:32:07.036Z,1.30
2022-11-25T04:34:33.699Z,0.82
2022-11-25T04:37:00.383Z,1.73
2022-11-25T04:39:26.986Z,1.50
2022-11-25T04:42:16.403Z,1.75
2022-11-25T04:44:48.712Z,2.17
2022-11-25T04:47:29.785Z,1.67
2022-11-25T04:49:56.444Z,1.48
2022-11-25T04:52:23.286Z,1.55
2022-11-25T04:54:49.873Z,1.50
2022-11-25T04:57:16.590Z,1.48
2022-11-25T04:59:43.856Z,1.33
2022-11-25T05:02:19.409Z,1.60
2022-11-25T05:04:49.754Z,1.52
2022-11-25T05:07:19.290Z,1.65
2022-11-25T05:09:46.599Z,1.58
2022-11-25T05:12:16.059Z,1.52
2022-11-25T05:14:42.673Z,2.20
2022-11-25T05:17:13.934Z,1.92
2022-11-25T05:19:40.602Z,2.35
2022-11-25T05:22:11.373Z,1.63
2022-11-25T05:24:38.107Z,1.45
2022-11-25T05:27:05.115Z,1.33
2022-11-25T05:29:31.903Z,1.40
2022-11-25T05:31:58.500Z,1.65
2022-11-25T05:34:26.064Z,1.83
2022-11-25T05:36:52.879Z,1.45
2022-11-25T05:39:19.904Z,1.40
2022-11-25T05:41:46.553Z,2.15
2022-11-25T05:44:16.133Z,1.25
2022-11-25T05:46:46.670Z,1.63
2022-11-25T05:49:13.883Z,1.67
2022-11-25T05:51:40.609Z,2.42
2022-11-25T05:54:07.795Z,1.67
2022-11-25T05:56:34.423Z,1.70
2022-11-25T05:59:01.606Z,2.33
2022-11-25T06:01:28.246Z,2.42
2022-11-25T06:03:54.781Z,2.10
2022-11-25T06:06:24.028Z,1.92
2022-11-25T06:08:50.602Z,1.35
2022-11-25T06:11:18.158Z,1.92
2022-11-25T06:13:44.974Z,1.38
2022-11-25T06:16:14.749Z,1.90
2022-11-25T06:18:41.822Z,1.98
2022-11-25T06:21:09.420Z,0.82
2022-11-25T06:23:36.952Z,1.65
2022-11-25T06:26:14.017Z,2.45
2022-11-25T06:28:40.762Z,2.08
2022-11-25T06:31:10.640Z,1.88
2022-11-25T06:33:37.944Z,2.75
2022-11-25T06:36:06.267Z,2.50
2022-11-25T06:38:33.167Z,2.42
2022-11-25T06:41:04.482Z,1.70
2022-11-25T06:43:32.481Z,1.77
2022-11-25T06:46:04.605Z,1.67
2022-11-25T06:48:31.236Z,1.92
2022-11-25T06:50:59.982Z,1.77
2022-11-25T06:53:27.566Z,3.08
2022-11-25T06:56:14.182Z,2.40
2022-11-25T06:58:41.871Z,2.97
2022-11-25T07:01:15.288Z,2.25
2022-11-25T07:03:43.393Z,2.38
2022-11-25T07:06:12.751Z,2.45
2022-11-25T07:08:39.681Z,2.85
2022-11-25T07:11:18.205Z,2.03
2022-11-25T07:13:45.951Z,2.25
2022-11-25T07:16:13.417Z,2.38
2022-11-25T07:18:41.118Z,2.22
2022-11-25T07:21:13.328Z,2.65
2022-11-25T07:23:41.295Z,2.72
2022-11-25T07:26:11.827Z,2.97
2022-11-25T07:28:38.850Z,3.10
2022-11-25T07:31:33.342Z,3.63
2022-11-25T07:34:01.819Z,2.50
2022-11-25T07:36:29.254Z,3.50
2022-11-25T07:38:58.322Z,2.90
2022-11-25T07:41:26.542Z,3.55
2022-11-25T07:43:56.066Z,2.33
2022-11-25T07:46:28.841Z,3.65
2022-11-25T07:48:57.427Z,2.28
2022-11-25T07:51:26.771Z,2.47
2022-11-25T07:53:55.640Z,1.77
2022-11-25T07:56:22.355Z,2.63
2022-11-25T07:58:49.410Z,2.30
2022-11-25T08:01:18.613Z,2.08
2022-11-25T08:03:46.579Z,1.17
2022-11-25T08:06:16.444Z,2.95
2022-11-25T08:08:43.712Z,2.17
2022-11-25T08:11:12.702Z,2.50
2022-11-25T08:13:39.859Z,2.95
2022-11-25T08:16:07.493Z,3.42
2022-11-25T08:18:34.839Z,1.20
2022-11-25T08:21:06.393Z,1.85
2022-11-25T08:23:34.501Z,1.80
2022-11-25T08:26:09.828Z,2.20
2022-11-25T08:28:37.529Z,2.15
2022-11-25T08:31:10.038Z,2.33
2022-11-25T08:33:36.812Z,1.45
2022-11-25T08:36:04.489Z,2.22
2022-11-25T08:38:31.706Z,2.00
2022-11-25T08:40:59.007Z,2.10
2022-11-25T08:43:29.369Z,3.08
2022-11-25T08:45:56.880Z,2.13
2022-11-25T08:48:23.551Z,2.28
2022-11-25T08:50:53.110Z,2.30
2022-11-25T08:53:21.985Z,2.53
2022-11-25T08:55:49.477Z,1.50
2022-11-25T08:58:16.165Z,2.60
2022-11-25T09:00:44.964Z,2.42
2022-11-25T09:03:12.510Z,2.70
2022-11-25T09:05:41.800Z,2.22
2022-11-25T09:08:09.494Z,2.90
2022-11-25T09:10:37.828Z,1.88
2022-11-25T09:13:04.720Z,2.90
2022-11-25T09:15:31.725Z,2.47
2022-11-25T09:18:04.613Z,2.08
2022-11-25T09:20:32.559Z,2.78
2022-11-25T09:23:00.739Z,0.73
2022-11-25T09:25:30.114Z,2.05
2022-11-25T09:27:57.004Z,2.72
2022-11-25T09:30:24.825Z,2.65
2022-11-25T09:32:52.964Z,2.83
2022-11-25T09:35:20.572Z,2.20
2022-11-25T09:37:47.159Z,2.75
2022-11-25T09:40:20.833Z,2.63
2022-11-25T09:43:15.250Z,1.73
2022-11-25T09:46:21.459Z,2.88
2022-11-25T09:49:06.803Z,3.20
2022-11-25T09:52:11.871Z,3.40
2022-11-25T09:55:05.521Z,2.55
2022-11-25T09:57:43.835Z,1.05
2022-11-25T10:00:16.245Z,2.63
2022-11-25T10:05:23.928Z,2.83
2022-11-25T10:07:55.839Z,2.53
2022-11-25T10:10:26.415Z,2.38
2022-11-25T10:12:55.758Z,2.08
2022-11-25T10:15:33.581Z,2.78
2022-11-25T10:18:20.351Z,3.63
2022-11-25T10:20:49.351Z,2.42
2022-11-25T10:23:28.455Z,1.98
2022-11-25T10:26:02.901Z,2.15
2022-11-25T10:28:35.800Z,3.42
2022-11-25T10:31:24.202Z,2.75
2022-11-25T10:33:54.284Z,1.90
2022-11-25T10:36:23.100Z,2.97
2022-11-25T10:38:56.947Z,2.30
2022-11-25T10:41:34.966Z,2.17
2022-11-25T10:44:01.543Z,2.13
2022-11-25T10:47:12.993Z,2.17
2022-11-25T10:49:50.192Z,4.10
2022-11-25T10:52:21.701Z,2.15
2022-11-25T10:55:16.193Z,2.15
2022-11-25T10:57:43.136Z,2.25
2022-11-25T11:00:32.037Z,1.73
2022-11-25T11:03:02.430Z,2.63
2022-11-25T11:05:31.103Z,2.40
2022-11-25T11:08:28.620Z,2.50
2022-11-25T11:13:40.638Z,2.70
2022-11-25T11:16:36.115Z,2.50
2022-11-25T11:19:03.739Z,2.10
2022-11-25T11:21:41.743Z,2.38
2022-11-25T11:24:32.499Z,2.13
2022-11-25T11:27:14.834Z,2.88
2022-11-25T11:29:41.430Z,1.73
2022-11-25T11:32:22.453Z,1.95
2022-11-25T11:35:06.588Z,3.90
2022-11-25T11:37:44.199Z,2.53
2022-11-25T11:40:30.862Z,2.72
2022-11-25T11:43:09.895Z,2.58
2022-11-25T11:46:27.387Z,2.67
2022-11-25T11:49:05.849Z,2.47
2022-11-25T11:51:56.620Z,2.25
2022-11-25T11:54:35.682Z,2.67
2022-11-25T11:57:07.606Z,2.60
2022-11-25T11:59:49.056Z,2.97
2022-11-25T12:02:36.733Z,2.50
2022-11-25T12:05:15.750Z,3.35
2022-11-25T12:07:42.260Z,2.30
2022-11-25T12:10:14.907Z,2.38
2022-11-25T12:12:55.171Z,1.52
2022-11-25T12:15:37.594Z,2.55
2022-11-25T12:18:25.111Z,2.38
2022-11-25T12:21:02.741Z,3.88
2022-11-25T12:23:40.731Z,2.83
2022-11-25T12:26:21.602Z,1.65
2022-11-25T12:28:54.759Z,3.08
2022-11-25T12:31:35.243Z,2.72
2022-11-25T12:34:23.111Z,2.92
2022-11-25T12:37:14.825Z,1.83
2022-11-25T12:39:50.783Z,3.45
2022-11-25T12:42:24.142Z,2.22
2022-11-25T12:44:59.451Z,1.90
2022-11-25T12:47:26.683Z,2.08
2022-11-25T12:49:55.111Z,2.05
2022-11-25T12:52:33.118Z,1.98
2022-11-25T12:55:13.952Z,2.00
2022-11-25T12:57:49.265Z,2.10
2022-11-25T13:00:42.295Z,3.00
2022-11-25T13:03:34.074Z,2.10
2022-11-25T13:09:14.349Z,3.15
2022-11-25T13:12:08.598Z,2.25
2022-11-25T13:14:48.236Z,3.28
2022-11-25T13:17:16.689Z,3.08
2022-11-25T13:19:43.655Z,2.22
2022-11-25T13:22:23.578Z,2.15
2022-11-25T13:24:50.814Z,2.03
2022-11-25T13:27:35.996Z,2.28
2022-11-25T13:30:03.255Z,2.33
2022-11-25T13:32:32.963Z,1.98
2022-11-25T13:35:21.494Z,3.15
2022-11-25T13:37:49.331Z,2.47
2022-11-25T13:40:20.042Z,2.50
2022-11-25T13:42:46.626Z,1.52
2022-11-25T13:45:25.384Z,2.10
2022-11-25T13:47:54.031Z,2.38
2022-11-25T13:50:41.677Z,2.35
2022-11-25T13:53:20.402Z,2.55
2022-11-25T13:55:50.273Z,2.25
2022-11-25T13:58:26.982Z,2.05
2022-11-25T14:01:28.049Z,3.03
2022-11-25T14:04:00.305Z,1.33
2022-11-25T14:06:51.120Z,3.30
2022-11-25T14:09:20.602Z,1.30
2022-11-25T14:12:11.834Z,1.98
2022-11-25T14:14:54.825Z,1.45
2022-11-25T14:17:31.186Z,2.63
2022-11-25T14:20:16.102Z,4.30
2022-11-25T14:23:00.924Z,2.53
2022-11-25T14:28:18.560Z,2.08
2022-11-25T14:30:53.919Z,2.50
2022-11-25T14:33:34.663Z,2.10
2022-11-25T14:36:10.885Z,2.22
2022-11-25T14:38:45.305Z,2.60
2022-11-25T14:41:19.834Z,2.00
2022-11-25T14:43:55.935Z,2.83
2022-11-25T14:46:25.545Z,2.70
2022-11-25T14:48:57.841Z,2.70
2022-11-25T14:51:27.033Z,2.38
2022-11-25T14:53:54.548Z,2.30
2022-11-25T14:56:33.196Z,2.58
2022-11-25T14:59:00.690Z,2.03
2022-11-25T15:01:33.091Z,2.28
2022-11-25T15:04:14.811Z,1.98
2022-11-25T15:06:43.905Z,2.22
2022-11-25T15:09:31.738Z,2.00
2022-11-25T15:12:04.028Z,2.42
2022-11-25T15:14:34.020Z,1.60
2022-11-25T15:17:07.008Z,3.25
2022-11-25T15:19:36.171Z,1.92
2022-11-25T15:22:23.602Z,2.38
2022-11-25T15:24:55.463Z,2.20
2022-11-25T15:27:26.230Z,2.05
2022-11-25T15:29:54.795Z,1.23
2022-11-25T15:32:27.244Z,1.90
2022-11-25T15:34:56.883Z,2.38
2022-11-25T15:37:24.220Z,2.28
2022-11-25T15:40:11.383Z,2.13
2022-11-25T15:42:37.969Z,1.15
2022-11-25T15:45:10.662Z,3.00
2022-11-25T15:47:37.434Z,2.53
2022-11-25T15:50:22.619Z,2.05
2022-11-25T15:52:53.108Z,2.55
2022-11-25T15:55:35.767Z,2.60
2022-11-25T15:58:17.751Z,1.42
2022-11-25T16:01:20.032Z,2.10
2022-11-25T16:03:47.864Z,2.78
2022-11-25T16:06:26.197Z,2.45
2022-11-25T16:09:03.821Z,1.77
2022-11-25T16:11:44.227Z,2.63
2022-11-25T16:14:28.386Z,1.83
2022-11-25T16:17:03.064Z,1.50
2022-11-25T16:19:38.105Z,3.15
2022-11-25T16:22:05.747Z,2.30
2022-11-25T16:24:47.832Z,2.50
2022-11-25T16:27:17.999Z,3.00
2022-11-25T16:29:50.899Z,2.83
2022-11-25T16:32:26.550Z,2.65
2022-11-25T16:34:56.732Z,2.70
2022-11-25T16:37:24.149Z,2.30
2022-11-25T16:39:50.749Z,1.88
2022-11-25T16:42:21.797Z,3.00
2022-11-25T16:44:51.046Z,2.47
2022-11-25T16:47:20.763Z,2.20
2022-11-25T16:49:54.753Z,2.83
2022-11-25T16:52:21.365Z,2.90
2022-11-25T16:54:47.918Z,2.42
2022-11-25T16:57:19.162Z,2.03
2022-11-25T16:59:47.252Z,2.55
2022-11-25T17:02:19.665Z,1.95
2022-11-25T17:04:47.639Z,2.72
2022-11-25T17:07:32.178Z,2.00
2022-11-25T17:09:59.162Z,1.80
2022-11-25T17:12:30.981Z,2.03
2022-11-25T17:15:00.343Z,2.35
2022-11-25T17:17:27.766Z,3.97
2022-11-25T17:19:54.856Z,3.47
2022-11-25T17:22:24.258Z,5.00
2022-11-25T17:24:50.987Z,5.28
2022-11-25T17:27:30.991Z,5.03
2022-11-25T17:30:00.135Z,5.85
2022-11-25T17:32:28.094Z,5.32
2022-11-25T17:34:54.753Z,4.82
2022-11-25T17:37:25.660Z,4.63
2022-11-25T17:39:53.603Z,3.63
2022-11-25T17:42:28.953Z,3.92
2022-11-25T17:44:55.889Z,3.00
2022-11-25T17:47:22.554Z,4.13
2022-11-25T17:49:49.680Z,3.88
2022-11-25T17:52:16.535Z,3.63
2022-11-25T17:54:43.296Z,4.25
2022-11-25T17:57:15.746Z,3.63
2022-11-25T17:59:42.532Z,3.58
2022-11-25T18:02:27.516Z,3.58
2022-11-25T18:04:55.284Z,4.22
2022-11-25T18:07:21.863Z,4.40
2022-11-25T18:09:48.686Z,4.53
2022-11-25T18:12:25.409Z,4.45
2022-11-25T18:14:52.125Z,4.18
2022-11-25T18:17:19.272Z,4.70
2022-11-25T18:19:52.857Z,4.85
2022-11-25T18:22:21.665Z,4.32
2022-11-25T18:24:48.342Z,4.90
2022-11-25T18:27:24.923Z,4.75
2022-11-25T18:29:52.180Z,3.58
2022-11-25T18:32:18.925Z,3.95
2022-11-25T18:34:45.874Z,4.18
2022-11-25T18:37:12.963Z,4.25
2022-11-25T18:39:39.773Z,4.25
2022-11-25T18:42:07.998Z,4.60
2022-11-25T18:44:37.954Z,3.47
2022-11-25T18:47:05.780Z,3.92
2022-11-25T18:49:32.335Z,3.40
2022-11-25T18:51:58.861Z,4.18
2022-11-25T18:54:25.413Z,3.65
2022-11-25T18:56:52.903Z,4.00
2022-11-25T18:59:26.321Z,3.90
2022-11-25T19:01:52.913Z,3.60
2022-11-25T19:04:19.517Z,4.57
2022-11-25T19:06:46.152Z,3.75
2022-11-25T19:09:12.970Z,4.05
2022-11-25T19:11:49.752Z,3.88
2022-11-25T19:14:21.997Z,3.70
2022-11-25T19:16:48.660Z,3.55
2022-11-25T19:19:16.885Z,3.75
2022-11-25T19:21:43.507Z,3.60
2022-11-25T19:24:14.676Z,3.60
2022-11-25T19:26:45.215Z,4.20
2022-11-25T19:29:18.230Z,3.30
2022-11-25T19:31:45.509Z,3.45
2022-11-25T19:34:25.885Z,3.58
2022-11-25T19:36:52.644Z,4.10
2022-11-25T19:39:19.256Z,4.20
2022-11-25T19:41:45.943Z,3.50
2022-11-25T19:44:12.657Z,4.30
2022-11-25T19:47:13.027Z,3.88
2022-11-25T19:49:30.115Z,3.38
2022-11-25T19:51:56.734Z,3.72
2022-11-25T19:54:23.271Z,4.80
2022-11-25T19:56:50.224Z,3.28
2022-11-25T19:59:16.787Z,3.17
2022-11-25T20:01:45.450Z,4.38
2022-11-25T20:04:22.277Z,4.03
2022-11-25T20:06:49.912Z,3.60
2022-11-25T20:09:16.511Z,3.33
2022-11-25T20:11:43.388Z,4.25
2022-11-25T20:14:10.044Z,3.25
2022-11-25T20:16:38.706Z,3.10
2022-11-25T20:19:07.000Z,3.42
2022-11-25T20:21:37.602Z,3.05
2022-11-25T20:24:09.924Z,3.70
2022-11-25T20:29:15.604Z,3.50
2022-11-25T20:31:42.271Z,3.95
2022-11-25T20:34:08.884Z,4.88
2022-11-25T20:36:35.498Z,4.75
2022-11-25T20:39:02.930Z,3.47
2022-11-25T20:41:30.173Z,6.10
2022-11-25T20:43:57.876Z,5.75
2022-11-25T20:46:29.059Z,5.15
2022-11-25T20:49:01.666Z,5.15
2022-11-25T20:51:28.965Z,4.70
2022-11-25T20:53:57.884Z,6.63
2022-11-25T20:56:26.128Z,6.65
2022-11-25T20:58:52.717Z,7.07
2022-11-25T21:01:19.637Z,5.07
2022-11-25T21:03:47.232Z,6.53
2022-11-25T21:06:24.792Z,7.82
2022-11-25T21:08:53.110Z,5.53
2022-11-25T21:11:21.426Z,4.25
2022-11-25T21:13:48.745Z,4.72
2022-11-25T21:16:15.757Z,4.72
2022-11-25T21:18:43.279Z,4.65
2022-11-25T21:21:15.632Z,4.15
2022-11-25T21:26:15.973Z,4.72
2022-11-25T21:28:45.399Z,4.43
2022-11-25T21:31:16.677Z,5.63
2022-11-25T21:33:44.709Z,5.30
2022-11-25T21:36:20.343Z,5.88
2022-11-25T21:38:49.633Z,4.28
2022-11-25T21:41:16.637Z,4.47
2022-11-25T21:43:46.721Z,5.45
2022-11-25T21:46:26.498Z,4.90
2022-11-25T21:48:53.415Z,4.63
2022-11-25T21:51:24.317Z,4.53
2022-11-25T21:53:52.720Z,5.13
2022-11-25T21:56:33.962Z,5.22
2022-11-25T21:59:02.634Z,4.53
2022-11-25T22:01:29.337Z,4.40
2022-11-25T22:03:56.107Z,5.22
2022-11-25T22:06:28.238Z,4.38
2022-11-25T22:08:55.658Z,4.95
2022-11-25T22:11:29.249Z,4.25
2022-11-25T22:13:56.599Z,3.95
2022-11-25T22:16:29.254Z,4.05
2022-11-25T22:18:56.315Z,4.15
2022-11-25T22:21:22.983Z,3.97
2022-11-25T22:23:49.819Z,3.88
2022-11-25T22:26:23.989Z,4.22
2022-11-25T22:28:52.142Z,4.28
2022-11-25T22:31:20.504Z,5.63
2022-11-25T22:33:47.671Z,4.50
2022-11-25T22:36:37.942Z,4.30
2022-11-25T22:39:24.147Z,4.25
2022-11-25T22:42:04.495Z,4.40
2022-11-25T22:44:37.977Z,3.50
2022-11-25T22:47:06.062Z,3.13
2022-11-25T22:49:46.356Z,4.20
2022-11-25T22:52:22.614Z,3.35
2022-11-25T22:54:49.643Z,2.88
2022-11-25T22:57:17.257Z,3.22
2022-11-25T22:59:44.403Z,3.15
2022-11-25T23:02:20.656Z,3.33
2022-11-25T23:04:51.970Z,3.40
2022-11-25T23:07:20.084Z,3.67
2022-11-25T23:09:46.808Z,2.72
2022-11-25T23:12:14.910Z,3.20
2022-11-25T23:14:42.583Z,3.35
2022-11-25T23:17:20.832Z,3.35
2022-11-25T23:19:48.109Z,3.28
2022-11-25T23:22:14.772Z,3.33
2022-11-25T23:24:43.947Z,2.88
2022-11-25T23:27:10.902Z,4.28
2022-11-25T23:29:37.503Z,3.03
2022-11-25T23:32:08.033Z,3.05
2022-11-25T23:34:35.141Z,3.95
2022-11-25T23:37:51.815Z,3.60
2022-11-25T23:42:45.919Z,3.53
2022-11-25T23:45:17.855Z,3.13
2022-11-25T23:47:45.765Z,3.20
2022-11-25T23:50:32.915Z,3.30
2022-11-25T23:53:12.849Z,3.20
2022-11-25T23:55:39.435Z,2.90
2022-11-25T23:58:17.579Z,3.50
